Terminal Aerodrome Forecast
Issued by NWS

Home | Current Version | Previous Version | Text Only | Print | Product List | Glossary On
Versions: 1 2 3 4 5 6 7 8 9 10 11 12 13 14 15 16 17 18 19 20 21 22 23 24 25 26
000
FTUS45 KREV 270500
TAFTRK
TAF
KTRK 270523Z 2706/2806 19006KT P6SM BKN180
     FM272000 20010G18KT P6SM SCT110 BKN180
     FM280200 VRB04KT P6SM SCT110 SCT180
      AMD NOT SKED 2706/2712=

USA.gov is the U.S. government's official web portal to all federal, state and local government web resources and services.